createdAt,value
2018-07-14T00:01:19.888Z,25.04
2018-07-14T00:03:49.739Z,25.07
2018-07-14T00:06:19.625Z,24.97
2018-07-14T00:08:49.525Z,24.89
2018-07-14T00:11:19.416Z,24.84
2018-07-14T00:13:49.300Z,24.92
2018-07-14T00:16:19.144Z,24.82
2018-07-14T00:18:49.032Z,24.86
2018-07-14T00:21:18.925Z,24.86
2018-07-14T00:23:48.811Z,24.80
2018-07-14T00:26:19.170Z,24.78
2018-07-14T00:28:49.155Z,24.77
2018-07-14T00:31:19.040Z,24.73
2018-07-14T00:33:48.841Z,24.72
2018-07-14T00:36:18.701Z,23.99
2018-07-14T00:38:48.528Z,24.59
2018-07-14T00:41:18.423Z,24.59
2018-07-14T00:43:48.264Z,24.57
2018-07-14T00:46:18.059Z,24.51
2018-07-14T00:48:47.795Z,24.46
2018-07-14T00:51:17.697Z,24.46
2018-07-14T00:53:47.596Z,24.47
2018-07-14T00:56:17.524Z,24.36
2018-07-14T00:58:47.688Z,24.39
2018-07-14T01:01:17.499Z,24.39
2018-07-14T01:03:47.361Z,24.41
2018-07-14T01:06:17.252Z,24.42
2018-07-14T01:08:47.060Z,24.44
2018-07-14T01:11:17.047Z,24.38
2018-07-14T01:13:46.896Z,24.41
2018-07-14T01:16:16.764Z,24.43
2018-07-14T01:18:46.616Z,24.47
2018-07-14T01:21:16.476Z,24.40
2018-07-14T01:23:46.331Z,24.24
2018-07-14T01:26:16.169Z,24.22
2018-07-14T01:28:45.976Z,24.29
2018-07-14T01:31:15.807Z,24.28
2018-07-14T01:33:45.648Z,24.25
2018-07-14T01:36:15.520Z,24.22
2018-07-14T01:38:45.417Z,24.21
2018-07-14T01:41:15.228Z,24.17
2018-07-14T01:43:45.350Z,24.13
2018-07-14T01:46:15.232Z,24.19
2018-07-14T01:48:45.109Z,24.10
2018-07-14T01:51:14.999Z,24.23
2018-07-14T01:53:44.872Z,24.15
2018-07-14T01:56:14.728Z,24.14
2018-07-14T01:58:44.553Z,24.18
2018-07-14T02:01:14.404Z,24.22
2018-07-14T02:03:44.266Z,24.21
2018-07-14T02:06:14.198Z,24.11
2018-07-14T02:08:44.029Z,24.15
2018-07-14T02:11:13.888Z,24.16
2018-07-14T02:13:43.767Z,24.17
2018-07-14T02:16:13.584Z,24.13
2018-07-14T02:18:43.526Z,24.21
2018-07-14T02:21:13.367Z,24.24
2018-07-14T02:23:43.140Z,24.22
2018-07-14T02:26:12.864Z,24.18
2018-07-14T02:28:42.691Z,24.24
2018-07-14T02:31:12.547Z,24.27
2018-07-14T02:33:42.431Z,24.22
2018-07-14T02:36:12.296Z,24.23
2018-07-14T02:38:42.104Z,24.23
2018-07-14T02:41:11.975Z,24.26
2018-07-14T02:43:41.803Z,24.19
2018-07-14T02:46:11.677Z,24.25
2018-07-14T02:48:41.509Z,24.26
2018-07-14T02:51:11.426Z,24.20
2018-07-14T02:53:41.261Z,24.21
2018-07-14T02:56:11.180Z,24.29
2018-07-14T02:58:41.012Z,24.25
2018-07-14T03:01:10.936Z,24.22
2018-07-14T03:03:40.788Z,24.26
2018-07-14T03:06:10.612Z,24.26
2018-07-14T03:08:40.473Z,24.28
2018-07-14T03:11:10.280Z,24.27
2018-07-14T03:13:40.152Z,24.22
2018-07-14T03:16:10.003Z,24.23
2018-07-14T03:18:39.874Z,24.27
2018-07-14T03:21:09.775Z,24.23
2018-07-14T03:23:39.573Z,24.28
2018-07-14T03:26:09.408Z,24.34
2018-07-14T03:28:39.200Z,24.41
2018-07-14T03:31:09.068Z,24.51
2018-07-14T03:33:38.873Z,24.45
2018-07-14T03:36:08.733Z,24.55
2018-07-14T03:38:38.556Z,24.59
2018-07-14T03:41:08.632Z,24.62
2018-07-14T03:43:38.433Z,24.66
2018-07-14T03:46:08.289Z,24.64
2018-07-14T03:48:38.104Z,24.86
2018-07-14T03:51:07.964Z,25.00
2018-07-14T03:53:37.808Z,25.00
2018-07-14T03:56:07.635Z,25.09
2018-07-14T03:58:37.523Z,25.11
2018-07-14T04:01:07.380Z,25.38
2018-07-14T04:03:37.247Z,25.60
2018-07-14T04:06:07.592Z,25.72
2018-07-14T04:08:37.422Z,25.94
2018-07-14T04:11:07.306Z,26.19
2018-07-14T04:13:37.160Z,26.19
2018-07-14T04:16:06.984Z,26.43
2018-07-14T04:18:36.808Z,26.42
2018-07-14T04:21:06.670Z,26.56
2018-07-14T04:23:36.521Z,26.76
2018-07-14T04:26:06.356Z,26.74
2018-07-14T04:28:36.156Z,27.00
2018-07-14T04:31:06.025Z,27.03
2018-07-14T04:33:35.843Z,26.92
2018-07-14T04:36:05.711Z,27.13
2018-07-14T04:38:35.574Z,27.28
2018-07-14T04:41:05.415Z,27.43
2018-07-14T04:43:35.207Z,27.48
2018-07-14T04:46:05.341Z,27.40
2018-07-14T04:48:35.175Z,27.83
2018-07-14T04:51:05.008Z,27.78
2018-07-14T04:53:34.862Z,27.87
2018-07-14T04:56:04.726Z,27.89
2018-07-14T04:58:34.594Z,27.90
2018-07-14T05:01:04.504Z,27.89
2018-07-14T05:03:34.400Z,28.02
2018-07-14T05:06:04.234Z,28.23
2018-07-14T05:08:34.085Z,28.07
2018-07-14T05:11:03.908Z,28.07
2018-07-14T05:13:33.808Z,28.20
2018-07-14T05:16:03.736Z,28.18
2018-07-14T05:18:33.583Z,28.40
2018-07-14T05:21:03.395Z,28.68
2018-07-14T05:23:33.239Z,28.67
2018-07-14T05:26:03.119Z,28.78
2018-07-14T05:28:32.972Z,28.88
2018-07-14T05:31:02.796Z,28.75
2018-07-14T05:33:32.636Z,28.99
2018-07-14T05:36:02.466Z,29.00
2018-07-14T05:38:32.343Z,29.08
2018-07-14T05:41:02.166Z,29.01
2018-07-14T05:43:32.034Z,28.95
2018-07-14T05:46:01.970Z,28.93
2018-07-14T05:48:31.828Z,29.20
2018-07-14T05:51:01.645Z,28.94
2018-07-14T05:53:31.583Z,29.22
2018-07-14T05:56:01.411Z,29.11
2018-07-14T05:58:31.268Z,29.30
2018-07-14T06:01:01.112Z,29.02
2018-07-14T06:03:31.012Z,29.19
2018-07-14T06:06:00.956Z,29.25
2018-07-14T06:08:30.769Z,29.11
2018-07-14T06:11:00.699Z,29.18
2018-07-14T06:13:30.632Z,29.51
2018-07-14T06:16:00.466Z,29.47
2018-07-14T06:18:30.380Z,29.57
2018-07-14T06:21:00.228Z,29.45
2018-07-14T06:23:30.097Z,29.69
2018-07-14T06:25:59.912Z,29.46
2018-07-14T06:28:29.829Z,29.52
2018-07-14T06:30:59.684Z,29.32
2018-07-14T06:33:29.538Z,29.43
2018-07-14T06:35:59.359Z,29.40
2018-07-14T06:38:29.391Z,29.21
2018-07-14T06:40:59.328Z,29.69
2018-07-14T06:43:29.136Z,29.94
2018-07-14T06:45:59.021Z,29.87
2018-07-14T06:48:28.877Z,29.98
2018-07-14T06:50:58.767Z,29.97
2018-07-14T06:53:28.607Z,30.11
2018-07-14T06:55:58.461Z,30.04
2018-07-14T06:58:28.318Z,29.81
2018-07-14T07:00:58.192Z,29.88
2018-07-14T07:03:28.154Z,30.03
2018-07-14T07:05:57.957Z,29.89
2018-07-14T07:08:27.852Z,29.94
2018-07-14T07:10:57.692Z,29.87
2018-07-14T07:13:27.568Z,29.74
2018-07-14T07:15:57.376Z,30.07
2018-07-14T07:18:27.227Z,29.95
2018-07-14T07:20:57.088Z,30.01
2018-07-14T07:23:26.888Z,30.04
2018-07-14T07:25:56.744Z,29.98
2018-07-14T07:28:26.601Z,30.09
2018-07-14T07:30:56.460Z,30.06
2018-07-14T07:33:26.320Z,30.21
2018-07-14T07:35:56.206Z,29.97
2018-07-14T07:38:26.052Z,29.79
2018-07-14T07:40:55.891Z,29.98
2018-07-14T07:43:25.885Z,30.20
2018-07-14T07:45:55.715Z,29.92
2018-07-14T07:48:25.583Z,30.01
2018-07-14T07:50:55.386Z,30.03
2018-07-14T07:53:25.255Z,30.22
2018-07-14T07:55:55.135Z,30.25
2018-07-14T07:58:25.012Z,30.27
2018-07-14T08:00:54.832Z,30.29
2018-07-14T08:03:24.764Z,30.24
2018-07-14T08:05:54.573Z,30.47
2018-07-14T08:08:24.431Z,30.67
2018-07-14T08:10:54.256Z,30.67
2018-07-14T08:13:24.141Z,30.58
2018-07-14T08:15:54.050Z,30.60
2018-07-14T08:18:23.857Z,30.50
2018-07-14T08:20:53.812Z,30.42
2018-07-14T08:23:23.643Z,30.34
2018-07-14T08:25:53.499Z,30.18
2018-07-14T08:28:23.292Z,30.34
2018-07-14T08:30:53.188Z,30.46
2018-07-14T08:33:23.076Z,30.46
2018-07-14T08:35:52.969Z,30.50
2018-07-14T08:38:22.776Z,30.62
2018-07-14T08:40:52.589Z,30.82
2018-07-14T08:43:22.440Z,30.65
2018-07-14T08:45:52.284Z,30.65
2018-07-14T08:48:22.089Z,30.78
2018-07-14T08:50:51.939Z,30.71
2018-07-14T08:53:21.744Z,30.80
2018-07-14T08:55:51.647Z,30.75
2018-07-14T08:58:25.513Z,30.94
2018-07-14T09:00:55.400Z,30.98
2018-07-14T09:03:25.312Z,31.09
2018-07-14T09:05:55.947Z,31.19
2018-07-14T09:08:26.080Z,31.10
2018-07-14T09:10:55.972Z,31.18
2018-07-14T09:13:25.810Z,31.19
2018-07-14T09:15:55.605Z,31.29
2018-07-14T09:18:25.413Z,31.26
2018-07-14T09:20:55.268Z,31.50
2018-07-14T09:23:25.112Z,31.70
2018-07-14T09:25:54.960Z,31.79
2018-07-14T09:28:24.767Z,31.78
2018-07-14T09:30:54.648Z,31.82
2018-07-14T09:33:24.523Z,31.69
2018-07-14T09:35:54.333Z,31.80
2018-07-14T09:38:24.182Z,31.60
2018-07-14T09:40:54.052Z,31.48
2018-07-14T09:43:23.866Z,31.62
2018-07-14T09:45:53.701Z,31.77
2018-07-14T09:48:23.557Z,31.89
2018-07-14T09:50:53.397Z,32.09
2018-07-14T09:53:23.288Z,32.14
2018-07-14T09:55:53.288Z,32.05
2018-07-14T09:58:23.138Z,32.22
2018-07-14T10:00:58.100Z,32.11
2018-07-14T10:03:27.994Z,32.09
2018-07-14T10:05:57.869Z,31.99
2018-07-14T10:08:27.716Z,31.93
2018-07-14T10:10:57.620Z,32.00
2018-07-14T10:13:27.588Z,31.88
2018-07-14T10:15:57.705Z,32.05
2018-07-14T10:18:27.615Z,32.34
2018-07-14T10:20:57.447Z,32.41
2018-07-14T10:23:27.268Z,32.39
2018-07-14T10:25:57.243Z,32.28
2018-07-14T10:28:26.991Z,32.38
2018-07-14T10:30:56.832Z,32.39
2018-07-14T10:33:26.657Z,32.13
2018-07-14T10:35:56.512Z,32.04
2018-07-14T10:38:26.309Z,32.09
2018-07-14T10:40:56.133Z,32.31
2018-07-14T10:43:26.027Z,32.38
2018-07-14T10:45:55.916Z,32.45
2018-07-14T10:48:25.736Z,32.62
2018-07-14T10:50:55.603Z,32.57
2018-07-14T10:53:25.453Z,32.65
2018-07-14T10:55:55.284Z,32.86
2018-07-14T10:58:25.128Z,32.36
2018-07-14T11:00:54.984Z,32.94
2018-07-14T11:03:24.863Z,33.01
2018-07-14T11:05:54.684Z,33.13
2018-07-14T11:08:24.513Z,33.11
2018-07-14T11:10:54.368Z,33.25
2018-07-14T11:13:24.180Z,33.21
2018-07-14T11:15:54.081Z,33.06
2018-07-14T11:18:23.904Z,33.12
2018-07-14T11:20:53.849Z,33.13
2018-07-14T11:23:23.726Z,33.12
2018-07-14T11:25:53.594Z,33.11
2018-07-14T11:28:23.407Z,32.90
2018-07-14T11:30:53.288Z,33.05
2018-07-14T11:33:23.189Z,33.02
2018-07-14T11:35:53.001Z,33.05
2018-07-14T11:38:22.924Z,33.03
2018-07-14T11:40:52.797Z,33.14
2018-07-14T11:43:22.656Z,33.05
2018-07-14T11:45:52.493Z,33.03
2018-07-14T11:48:22.308Z,33.08
2018-07-14T11:50:52.176Z,33.06
2018-07-14T11:53:22.089Z,33.01
2018-07-14T11:55:51.952Z,33.21
2018-07-14T11:58:21.774Z,33.41
2018-07-14T12:00:51.689Z,33.33
2018-07-14T12:03:21.552Z,33.19
2018-07-14T12:05:51.406Z,33.13
2018-07-14T12:08:21.247Z,33.10
2018-07-14T12:10:51.119Z,33.11
2018-07-14T12:13:21.025Z,33.06
2018-07-14T12:15:50.827Z,33.20
2018-07-14T12:18:20.711Z,33.37
2018-07-14T12:20:50.549Z,33.49
2018-07-14T12:23:20.442Z,33.43
2018-07-14T12:25:50.372Z,33.54
2018-07-14T12:28:20.223Z,33.68
2018-07-14T12:30:50.054Z,33.78
2018-07-14T12:33:19.916Z,33.76
2018-07-14T12:35:49.725Z,33.69
2018-07-14T12:38:19.648Z,34.00
2018-07-14T12:40:49.495Z,33.97
2018-07-14T12:43:19.375Z,33.99
2018-07-14T12:45:49.163Z,33.87
2018-07-14T12:48:19.060Z,33.96
2018-07-14T12:50:48.902Z,34.02
2018-07-14T12:53:18.804Z,33.94
2018-07-14T12:55:48.644Z,33.82
2018-07-14T12:58:18.448Z,33.87
2018-07-14T13:00:48.377Z,33.48
2018-07-14T13:03:18.189Z,33.01
2018-07-14T13:05:48.063Z,32.71
2018-07-14T13:08:17.917Z,32.49
2018-07-14T13:10:47.867Z,32.64
2018-07-14T13:13:17.761Z,32.54
2018-07-14T13:15:47.608Z,32.70
2018-07-14T13:18:17.444Z,32.51
2018-07-14T13:20:47.322Z,32.33
2018-07-14T13:23:17.164Z,32.28
2018-07-14T13:25:47.076Z,32.50
2018-07-14T13:28:16.940Z,32.46
2018-07-14T13:30:46.844Z,32.59
2018-07-14T13:33:16.736Z,32.74
2018-07-14T13:35:46.554Z,32.82
2018-07-14T13:38:16.395Z,32.87
2018-07-14T13:40:46.201Z,32.86
2018-07-14T13:43:16.048Z,32.94
2018-07-14T13:45:45.871Z,32.81
2018-07-14T13:48:15.772Z,32.76
2018-07-14T13:50:45.597Z,32.86
2018-07-14T13:53:15.452Z,32.91
2018-07-14T13:55:45.284Z,32.92
2018-07-14T13:58:15.165Z,32.98
2018-07-14T14:00:45.035Z,32.75
2018-07-14T14:03:14.901Z,32.91
2018-07-14T14:05:44.773Z,32.91
2018-07-14T14:08:14.600Z,32.85
2018-07-14T14:10:44.536Z,32.70
2018-07-14T14:13:14.390Z,32.70
2018-07-14T14:15:44.263Z,32.88
2018-07-14T14:18:14.150Z,32.73
2018-07-14T14:20:44.041Z,32.82
2018-07-14T14:23:13.903Z,32.85
2018-07-14T14:25:43.830Z,32.71
2018-07-14T14:28:13.661Z,32.77
2018-07-14T14:30:43.676Z,32.72
2018-07-14T14:33:14.428Z,32.74
2018-07-14T14:35:44.328Z,32.94
2018-07-14T14:38:14.124Z,33.01
2018-07-14T14:40:44.029Z,32.74
2018-07-14T14:43:13.893Z,32.93
2018-07-14T14:45:43.762Z,32.14
2018-07-14T14:48:13.563Z,32.54
2018-07-14T14:50:43.408Z,32.36
2018-07-14T14:53:13.308Z,32.48
2018-07-14T14:55:43.115Z,32.34
2018-07-14T14:58:12.953Z,32.34
2018-07-14T15:00:42.792Z,32.07
2018-07-14T15:03:12.652Z,32.21
2018-07-14T15:05:42.482Z,32.17
2018-07-14T15:08:12.369Z,32.09
2018-07-14T15:10:42.208Z,31.98
2018-07-14T15:13:12.072Z,31.80
2018-07-14T15:15:41.896Z,31.71
2018-07-14T15:18:11.748Z,31.65
2018-07-14T15:20:41.553Z,31.69
2018-07-14T15:23:11.396Z,31.72
2018-07-14T15:25:41.289Z,31.64
2018-07-14T15:28:11.165Z,31.70
2018-07-14T15:30:41.016Z,31.59
2018-07-14T15:33:11.086Z,31.63
2018-07-14T15:35:40.720Z,31.57
2018-07-14T15:38:10.556Z,31.55
2018-07-14T15:40:40.417Z,31.46
2018-07-14T15:43:10.208Z,31.51
2018-07-14T15:45:40.077Z,31.59
2018-07-14T15:48:09.952Z,31.37
2018-07-14T15:50:39.801Z,31.33
2018-07-14T15:53:09.709Z,31.20
2018-07-14T15:55:39.561Z,31.17
2018-07-14T15:58:09.392Z,31.18
2018-07-14T16:00:39.248Z,31.12
2018-07-14T16:03:09.144Z,31.09
2018-07-14T16:05:38.944Z,31.09
2018-07-14T16:08:08.896Z,31.19
2018-07-14T16:10:38.708Z,31.32
2018-07-14T16:13:08.812Z,31.29
2018-07-14T16:15:38.694Z,31.07
2018-07-14T16:18:08.776Z,31.10
2018-07-14T16:20:38.654Z,30.99
2018-07-14T16:23:08.533Z,30.89
2018-07-14T16:25:38.336Z,30.88
2018-07-14T16:28:08.204Z,30.79
2018-07-14T16:30:38.103Z,30.83
2018-07-14T16:33:07.980Z,30.75
2018-07-14T16:35:38.021Z,30.71
2018-07-14T16:38:07.819Z,30.61
2018-07-14T16:40:37.745Z,30.62
2018-07-14T16:43:07.623Z,30.42
2018-07-14T16:45:37.513Z,30.38
2018-07-14T16:48:07.404Z,30.30
2018-07-14T16:50:37.291Z,30.11
2018-07-14T16:53:07.228Z,30.04
2018-07-14T16:55:37.102Z,30.03
2018-07-14T16:58:07.052Z,29.97
2018-07-14T17:00:36.927Z,29.91
2018-07-14T17:03:06.792Z,29.94
2018-07-14T17:05:36.656Z,29.83
2018-07-14T17:08:06.479Z,29.74
2018-07-14T17:10:36.332Z,29.71
2018-07-14T17:13:06.205Z,29.61
2018-07-14T17:15:36.012Z,29.60
2018-07-14T17:18:05.883Z,29.50
2018-07-14T17:20:35.795Z,29.45
2018-07-14T17:23:05.619Z,29.42
2018-07-14T17:25:35.459Z,29.38
2018-07-14T17:28:05.499Z,29.30
2018-07-14T17:30:35.360Z,29.26
2018-07-14T17:33:05.218Z,29.32
2018-07-14T17:35:35.038Z,29.19
2018-07-14T17:38:05.004Z,29.18
2018-07-14T17:40:34.888Z,29.12
2018-07-14T17:43:04.706Z,29.07
2018-07-14T17:45:34.560Z,28.94
2018-07-14T17:48:04.369Z,28.87
2018-07-14T17:50:34.264Z,28.68
2018-07-14T17:53:04.115Z,28.67
2018-07-14T17:55:34.261Z,28.65
2018-07-14T17:58:04.117Z,28.63
2018-07-14T18:00:34.012Z,28.50
2018-07-14T18:03:03.837Z,28.49
2018-07-14T18:05:33.709Z,28.47
2018-07-14T18:08:03.552Z,28.41
2018-07-14T18:10:33.420Z,28.31
2018-07-14T18:13:03.303Z,28.12
2018-07-14T18:15:33.101Z,28.13
2018-07-14T18:18:03.140Z,28.16
2018-07-14T18:20:32.973Z,28.02
2018-07-14T18:23:02.782Z,27.98
2018-07-14T18:25:32.635Z,27.92
2018-07-14T18:28:02.441Z,27.90
2018-07-14T18:30:32.314Z,27.35
2018-07-14T18:33:02.175Z,27.84
2018-07-14T18:35:31.964Z,27.88
2018-07-14T18:38:01.838Z,27.88
2018-07-14T18:40:31.681Z,27.90
2018-07-14T18:43:01.513Z,27.85
2018-07-14T18:45:31.451Z,27.84
2018-07-14T18:48:01.356Z,27.77
2018-07-14T18:50:31.241Z,27.70
2018-07-14T18:53:01.068Z,27.54
2018-07-14T18:55:30.904Z,27.50
2018-07-14T18:58:00.748Z,27.44
2018-07-14T19:00:30.577Z,27.41
2018-07-14T19:03:00.461Z,27.33
2018-07-14T19:05:30.314Z,27.32
2018-07-14T19:08:00.185Z,27.21
2018-07-14T19:10:30.009Z,27.17
2018-07-14T19:12:59.916Z,27.08
2018-07-14T19:15:29.689Z,27.02
2018-07-14T19:17:59.597Z,26.95
2018-07-14T19:20:29.426Z,26.86
2018-07-14T19:22:59.300Z,26.76
2018-07-14T19:25:29.117Z,26.77
2018-07-14T19:27:58.968Z,26.66
2018-07-14T19:30:28.756Z,26.68
2018-07-14T19:32:58.612Z,26.66
2018-07-14T19:35:28.504Z,26.59
2018-07-14T19:37:58.367Z,26.57
2018-07-14T19:40:28.283Z,26.51
2018-07-14T19:42:58.130Z,26.44
2018-07-14T19:45:28.075Z,26.39
2018-07-14T19:47:57.868Z,26.38
2018-07-14T19:50:27.712Z,26.28
2018-07-14T19:52:57.599Z,26.11
2018-07-14T19:55:27.485Z,26.05
2018-07-14T19:57:57.332Z,26.06
2018-07-14T20:00:27.132Z,26.12
2018-07-14T20:02:57.029Z,26.01
2018-07-14T20:05:27.000Z,26.07
2018-07-14T20:07:56.869Z,26.02
2018-07-14T20:10:26.680Z,26.03
2018-07-14T20:12:56.527Z,26.00
2018-07-14T20:15:26.370Z,26.00
2018-07-14T20:17:56.287Z,26.06
2018-07-14T20:20:26.096Z,26.08
2018-07-14T20:22:55.921Z,26.08
2018-07-14T20:25:25.752Z,26.10
2018-07-14T20:27:55.576Z,26.07
2018-07-14T20:30:25.465Z,25.97
2018-07-14T20:32:55.300Z,25.98
2018-07-14T20:35:25.296Z,26.01
2018-07-14T20:37:55.100Z,25.88
2018-07-14T20:40:24.993Z,25.90
2018-07-14T20:42:54.816Z,25.80
2018-07-14T20:45:24.644Z,25.81
2018-07-14T20:47:54.489Z,25.81
2018-07-14T20:50:24.392Z,25.73
2018-07-14T20:52:54.321Z,25.68
2018-07-14T20:55:24.159Z,25.74
2018-07-14T20:57:54.016Z,25.72
2018-07-14T21:00:23.844Z,25.72
2018-07-14T21:02:53.714Z,25.73
2018-07-14T21:05:23.592Z,25.67
2018-07-14T21:07:53.421Z,25.69
2018-07-14T21:10:23.262Z,25.67
2018-07-14T21:12:53.050Z,25.60
2018-07-14T21:15:22.899Z,25.59
2018-07-14T21:17:52.716Z,25.58
2018-07-14T21:20:22.612Z,25.54
2018-07-14T21:22:52.472Z,25.45
2018-07-14T21:25:22.336Z,25.45
2018-07-14T21:27:52.154Z,25.37
2018-07-14T21:30:22.005Z,25.34
2018-07-14T21:32:51.768Z,25.35
2018-07-14T21:35:21.635Z,25.23
2018-07-14T21:37:51.451Z,25.28
2018-07-14T21:40:21.499Z,25.23
2018-07-14T21:42:51.216Z,25.24
2018-07-14T21:45:21.061Z,25.22
2018-07-14T21:47:50.892Z,25.15
2018-07-14T21:50:20.795Z,25.04
2018-07-14T21:52:50.604Z,25.02
2018-07-14T21:55:20.478Z,24.95
2018-07-14T21:57:50.315Z,24.93
2018-07-14T22:00:32.988Z,24.95
2018-07-14T22:03:05.064Z,25.02
2018-07-14T22:05:34.912Z,24.85
2018-07-14T22:08:04.720Z,24.89
2018-07-14T22:10:34.589Z,24.94
2018-07-14T22:13:04.427Z,24.87
2018-07-14T22:15:34.285Z,24.93
2018-07-14T22:18:04.240Z,24.91
2018-07-14T22:20:34.072Z,24.87
2018-07-14T22:23:03.948Z,24.89
2018-07-14T22:25:33.856Z,24.89
2018-07-14T22:28:03.708Z,24.77
2018-07-14T22:30:33.580Z,24.76
2018-07-14T22:33:03.421Z,24.78
2018-07-14T22:35:33.289Z,24.65
2018-07-14T22:38:03.142Z,24.59
2018-07-14T22:40:33.000Z,24.50
2018-07-14T22:43:02.861Z,24.36
2018-07-14T22:45:32.752Z,24.33
2018-07-14T22:48:02.560Z,24.21
2018-07-14T22:50:32.465Z,24.21
2018-07-14T22:53:02.263Z,24.18
2018-07-14T22:55:32.117Z,24.14
2018-07-14T22:58:01.969Z,24.09
2018-07-14T23:00:31.825Z,24.05
2018-07-14T23:03:01.660Z,24.07
2018-07-14T23:05:31.561Z,24.14
2018-07-14T23:08:01.425Z,24.11
2018-07-14T23:10:31.239Z,24.07
2018-07-14T23:13:01.092Z,24.06
2018-07-14T23:15:30.986Z,24.10
2018-07-14T23:18:00.830Z,24.13
2018-07-14T23:20:30.760Z,24.15
2018-07-14T23:23:00.641Z,24.09
2018-07-14T23:25:30.453Z,24.06
2018-07-14T23:28:00.296Z,24.11
2018-07-14T23:30:30.153Z,24.17
2018-07-14T23:32:59.986Z,24.17
2018-07-14T23:35:29.834Z,24.08
2018-07-14T23:37:59.625Z,24.13
2018-07-14T23:40:29.476Z,24.05
2018-07-14T23:42:59.365Z,24.12
2018-07-14T23:45:29.188Z,24.07
2018-07-14T23:47:59.026Z,24.07
2018-07-14T23:50:28.828Z,24.12
2018-07-14T23:52:58.673Z,24.10
2018-07-14T23:55:28.525Z,24.14
2018-07-14T23:57:58.356Z,24.11
